Nearby METAR Reports

 

ENCN - Kristiansand/Kje, Norway
Distance from station: N 17km
Oppdatert: 23/10/2019 18:20
Delvis skyet
Delvis skyet
 Vind fra SV
Vind: SV 15 km/h
Temperatur: 10°C
Wind Chill: 8°C
Duggpunkt: 8°C
Fuktighet: 88%
Barometer: 1013 hPa
Clouds: Delvis skyet
Visibility: 10 km
Cloud details: Delvis skyet 610 m
2019/10/23 16:20 ENCN 231620Z 22008KT 9999 SCT020 10/08 Q1013
EKSN - Sindal Airport, Denmark
Distance from station: ØSØ 145km
Oppdatert: 23/10/2019 14:50
NOT Current
Hovedsaklig skyet
Hovedsaklig skyet
 Vind fra SV
Vind: SV 24 km/h
Temperatur: 13°C
Duggpunkt: 8°C
Fuktighet: 72%
Barometer: 1016 hPa
Clouds: Hovedsaklig skyet
Visibility: 10 km
Cloud details: Hovedsaklig skyet 1280 m
2019/10/23 12:50 EKSN 231250Z 22013KT 9999 BKN042 13/08 Q1016
 
EKYT - Alborg, Denmark
Distance from station: SØ 153km
Oppdatert: 23/10/2019 18:20
Hovedsaklig skyet
Hovedsaklig skyet
 Vind fra S
Vind: S 11 km/h
Temperatur: 11°C
Duggpunkt: 7°C
Fuktighet: 77%
Barometer: 1015 hPa
Clouds: Hovedsaklig skyet
Visibility: 10 km
Cloud details: Hovedsaklig skyet 1280 m
2019/10/23 16:20 EKYT 231620Z AUTO 19006KT 9999 BKN042/// 11/07 Q1015
ENSN - Skien/Geiterygge, Norway
Distance from station: NØ 153km
Oppdatert: 09/11/2015 09:50
NOT Current
Klart
Klart
 Vind fra SSV
Vind: SSV 19 km/h, Vindkast: 41 km/h
Temperatur: 7°C
Wind Chill: 4°C
Duggpunkt: 3°C
Fuktighet: 76%
Barometer: 1000 hPa
Oversikt: Klart
Visibility: greater than 10 km
2015/11/09 08:50 ENSN 090850Z 20010G22KT 150V240 CAVOK 07/03 Q1000
 
ENZV - Stavanger/Sola(A, Norway
Distance from station: NV 166km
Oppdatert: 23/10/2019 18:20
Hovedsaklig skyet
Hovedsaklig skyet
 Vind fra SSØ
Vind: SSØ 24 km/h
Temperatur: 11°C
Duggpunkt: 9°C
Fuktighet: 88%
Barometer: 1010 hPa
Clouds: Hovedsaklig skyet
Visibility: 10 km
Cloud details: Delvis skyet 427 m
Hovedsaklig skyet 1219 m
2019/10/23 16:20 ENZV 231620Z 16013KT 9999 SCT014 BKN040 11/09 Q1010 NOSIG
ENNO - Notodden, Norway
Distance from station: NNØ 182km
Oppdatert: 23/10/2019 17:50
Klart
Klart
 Vind fra varies
Vind: varies 4 km/h
Temperatur: 11°C
Duggpunkt: 4°C
Fuktighet: 62%
Barometer: 1010 hPa
Oversikt: Klart
Visibility: greater than 10 km
2019/10/23 15:50 ENNO 231550Z VRB02KT CAVOK 11/04 Q1010
 
ENTO - Torp (civ/Nor-Af, Norway
Distance from station: NØ 183km
Oppdatert: 23/10/2019 18:20
Klart
Klart
 Vind fra SSV
Vind: SSV 20 km/h
Temperatur: 11°C
Duggpunkt: 8°C
Fuktighet: 82%
Barometer: 1011 hPa
Oversikt: Klart
Visibility: greater than 10 km
2019/10/23 16:20 ENTO 231620Z 20011KT CAVOK 11/08 Q1011 NOSIG
EKKA - Karup (dan-Afb), Denmark
Distance from station: SSØ 209km
Oppdatert: 23/10/2019 18:20
Hovedsaklig skyet
Hovedsaklig skyet
 Vind fra S
Vind: S 7 km/h
Temperatur: 11°C
Duggpunkt: 9°C
Fuktighet: 88%
Barometer: 1015 hPa
Clouds: Hovedsaklig skyet
Visibility: 10 km
Cloud details: Hovedsaklig skyet 1067 m
2019/10/23 16:20 EKKA 231620Z AUTO 17004KT 9999 BKN035/// 11/09 Q1015 NOSIG
 
ENHD - Haugesund/Karmoy, Norway
Distance from station: NV 216km
Oppdatert: 23/10/2019 18:20
Hovedsaklig skyet
Hovedsaklig skyet
 Vind fra S
Vind: S 24 km/h
Temperatur: 11°C
Duggpunkt: 8°C
Fuktighet: 82%
Barometer: 1009 hPa
Clouds: Hovedsaklig skyet
Visibility: 10 km
Cloud details: Few Clouds 518 m
Delvis skyet 792 m
Hovedsaklig skyet 1219 m
2019/10/23 16:20 ENHD 231620Z 17013KT 9999 FEW017 SCT026 BKN040 11/08 Q1009
ENRY - Rygge (nor-Afb), Norway
Distance from station: NØ 216km
Oppdatert: 23/10/2019 18:20
Klart
Klart
 Vind fra S
Vind: S 19 km/h
Temperatur: 11°C
Duggpunkt: 8°C
Fuktighet: 82%
Barometer: 1011 hPa
Oversikt: Klart
Visibility: greater than 10 km
2019/10/23 16:20 ENRY 231620Z 19010KT CAVOK 11/08 Q1011
 
ESGP - Goteborg/Save (a, Sweden
Distance from station: Ø 230km
Oppdatert: 02/01/2017 11:20
NOT Current
Klart
Klart
 Vind fra calm
Vind: Stille
Temperatur: -2°C
Duggpunkt: -4°C
Fuktighet: 86%
Barometer: 1012 hPa
Clouds: Klart
Visibility: 10 km
2017/01/02 10:20 ESGP 021020Z AUTO 00000KT 9999 NCD M02/M04 Q1012
EKVJ - Stauning Airport, Denmark
Distance from station: S 233km
Oppdatert: 23/10/2019 15:50
NOT Current
Hovedsaklig skyet
Hovedsaklig skyet
 Vind fra SSV
Vind: SSV 9 km/h
Temperatur: 13°C
Duggpunkt: 10°C
Fuktighet: 82%
Barometer: 1016 hPa
Clouds: Hovedsaklig skyet
Visibility: 10 km
Cloud details: Hovedsaklig skyet 1219 m
2019/10/23 13:50 EKVJ 231350Z 21005KT 9999 BKN040 13/10 Q1016
 
ENSO - Stord/Soerstokke, Norway
Distance from station: NV 246km
Oppdatert: 23/10/2019 18:20
Hovedsaklig skyet
Hovedsaklig skyet
 Vind fra SSØ
Vind: SSØ 28 km/h
Temperatur: 11°C
Duggpunkt: 8°C
Fuktighet: 82%
Barometer: 1008 hPa
Clouds: Hovedsaklig skyet
Visibility: 10 km
Cloud details: Delvis skyet 610 m
Delvis skyet 823 m
Hovedsaklig skyet 1433 m
2019/10/23 16:20 ENSO 231620Z 16015KT 9999 SCT020 SCT027 BKN047 11/08 Q1008
EKAH - Tirstrup (civ/Mi, Denmark
Distance from station: SØ 252km
Oppdatert: 23/10/2019 18:20
Hovedsaklig skyet
Hovedsaklig skyet
 Vind fra SSØ
Vind: SSØ 6 km/h
Temperatur: 11°C
Duggpunkt: 9°C
Fuktighet: 88%
Barometer: 1016 hPa
Clouds: Hovedsaklig skyet
Visibility: 10 km
Cloud details: Hovedsaklig skyet 1097 m
2019/10/23 16:20 EKAH 231620Z AUTO 16003KT 9999NDV BKN036/// 11/09 Q1016
 
ESGT - Trollhattan (pvt, Sweden
Distance from station: Ø 255km
Oppdatert: 23/10/2019 18:20
Hovedsaklig skyet
Hovedsaklig skyet
 Vind fra S
Vind: S 19 km/h
Temperatur: 11°C
Duggpunkt: 8°C
Fuktighet: 82%
Barometer: 1014 hPa
Clouds: Hovedsaklig skyet
Visibility: 10 km
Cloud details: Hovedsaklig skyet 1189 m
2019/10/23 16:20 ESGT 231620Z 19010KT 9999 BKN039 11/08 Q1014
ESGG - Goteborg/Landvet, Sweden
Distance from station: Ø 257km
Oppdatert: 23/10/2019 18:20
Klart
Klart
 Vind fra SSV
Vind: SSV 17 km/h
Temperatur: 8°C
Wind Chill: 5°C
Duggpunkt: 7°C
Fuktighet: 93%
Barometer: 1015 hPa
Oversikt: Klart
Visibility: greater than 10 km
2019/10/23 16:20 ESGG 231620Z 20009KT CAVOK 08/07 Q1015
 
EKBI - Billund Airport, Denmark
Distance from station: SSØ 269km
Oppdatert: 23/10/2019 18:20
Hovedsaklig skyet
Hovedsaklig skyet
 Vind fra S
Vind: S 6 km/h
Temperatur: 11°C
Duggpunkt: 9°C
Fuktighet: 88%
Barometer: 1016 hPa
Clouds: Hovedsaklig skyet
Visibility: 10 km
Cloud details: Delvis skyet 549 m
Hovedsaklig skyet 914 m
2019/10/23 16:20 EKBI 231620Z AUTO 17003KT 9999 SCT018/// BKN030/// 11/09 Q1016
EKHN - Horns Rev B Heli, Denmark
Distance from station: S 274km
Oppdatert: 09/08/2016 14:20
NOT Current
Few Clouds
Few Clouds
 Vind fra VNV
Vind: VNV 50 km/h, Vindkast: 72 km/h
Temperatur: 14°C
Duggpunkt: 10°C
Fuktighet: 77%
Barometer: 1018 hPa
Clouds: Few Clouds
Visibility: 10 km
Cloud details: Few Clouds 1158 m
Few Clouds 2438 m
2016/08/09 12:20 EKHN 091220Z AUTO 29027G39KT 270V340 9999NDV FEW038/// FEW080/// 14/10 Q1018